Time;durP1;ratioP1;P1;durP2;ratioP2;P2;SDS_P1;SDS_P2;PMS_P1;PMS_P2;Temp;Humidity;BMP_temperature;BMP_pressure;BME280_temperature;BME280_humidity;BME280_pressure;Samples;Min_cycle;Max_cycle;Signal;HPM_P1;HPM_P2
2022/10/03 00:01:56;;;;;;;6.60;1.37;;;12.70;99.90;;;;;;5033948;28;20194;-81
2022/10/03 00:04:45;;;;;;;7.67;1.80;;;12.70;99.90;;;;;;5033560;28;20234;-81
2022/10/03 00:07:30;;;;;;;5.67;1.43;;;12.70;99.90;;;;;;5034138;28;20190;-81
2022/10/03 00:10:13;;;;;;;10.17;1.73;;;12.70;99.90;;;;;;5033561;28;20566;-83
2022/10/03 00:13:00;;;;;;;2.67;1.30;;;12.70;99.90;;;;;;5036631;28;20213;-81
2022/10/03 00:15:33;;;;;;;3.57;1.43;;;12.70;99.90;;;;;;5053376;28;20221;-82
2022/10/03 00:18:12;;;;;;;4.53;1.20;;;12.60;99.90;;;;;;5052879;28;20783;-81
2022/10/03 00:20:49;;;;;;;12.67;2.83;;;12.60;99.90;;;;;;5051861;28;20198;-81
2022/10/03 00:23:21;;;;;;;7.80;1.77;;;12.60;99.90;;;;;;5053645;28;20216;-81
2022/10/03 00:25:55;;;;;;;5.93;1.47;;;12.60;99.90;;;;;;5052757;28;20202;-81
2022/10/03 00:28:48;;;;;;;6.33;1.60;;;12.60;99.90;;;;;;5053873;28;20247;-82
2022/10/03 00:31:17;;;;;;;3.47;1.13;;;12.50;99.90;;;;;;5032532;28;20199;-82
2022/10/03 00:34:01;;;;;;;4.93;1.47;;;12.50;99.90;;;;;;5033135;28;20408;-81
2022/10/03 00:36:38;;;;;;;3.47;1.10;;;12.40;99.90;;;;;;5033482;28;20230;-81
2022/10/03 00:39:33;;;;;;;4.13;1.40;;;12.40;99.90;;;;;;5032782;28;20256;-84
2022/10/03 00:42:40;;;;;;;6.27;1.80;;;12.40;99.90;;;;;;5033369;28;20217;-81
2022/10/03 00:45:44;;;;;;;6.07;1.30;;;12.40;99.90;;;;;;5033680;28;20207;-82
2022/10/03 00:48:43;;;;;;;5.13;1.30;;;12.30;99.90;;;;;;5033250;28;20197;-81
2022/10/03 00:51:25;;;;;;;4.37;1.30;;;12.30;99.90;;;;;;5033896;28;20209;-82
2022/10/03 00:54:06;;;;;;;6.83;1.40;;;12.30;99.90;;;;;;5050866;28;20190;-81
2022/10/03 00:56:59;;;;;;;5.60;1.53;;;12.30;99.90;;;;;;5053116;28;20218;-82
2022/10/03 00:59:40;;;;;;;5.10;1.93;;;12.30;99.90;;;;;;5045258;28;20202;-81
2022/10/03 01:02:46;;;;;;;6.77;1.30;;;12.30;99.90;;;;;;5033220;28;20194;-81
2022/10/03 01:05:20;;;;;;;9.03;1.70;;;12.30;99.90;;;;;;4996289;28;20198;-82
2022/10/03 01:08:26;;;;;;;4.60;1.63;;;12.30;99.90;;;;;;5052306;28;20629;-81
2022/10/03 01:11:00;;;;;;;7.07;1.30;;;12.30;99.90;;;;;;5052772;28;20203;-83
2022/10/03 01:13:37;;;;;;;4.83;1.23;;;12.20;99.90;;;;;;5037682;28;20228;-81
2022/10/03 01:16:15;;;;;;;2.83;0.93;;;12.20;99.90;;;;;;5035665;28;20626;-81
2022/10/03 01:18:53;;;;;;;4.50;1.10;;;12.20;99.90;;;;;;5052834;28;20280;-81
2022/10/03 01:21:34;;;;;;;3.40;1.20;;;12.10;99.90;;;;;;5052259;28;20245;-81
2022/10/03 01:24:25;;;;;;;4.90;1.40;;;12.10;99.90;;;;;;5052877;28;20210;-82
2022/10/03 01:26:57;;;;;;;6.70;1.37;;;12.00;99.90;;;;;;5035753;28;20191;-81
2022/10/03 01:32:35;;;;;;;4.43;1.03;;;12.00;99.90;;;;;;5032474;28;20283;-82
2022/10/03 01:35:13;;;;;;;7.17;1.40;;;12.00;99.90;;;;;;5032213;28;20256;-81
2022/10/03 01:37:47;;;;;;;3.93;1.10;;;12.00;99.90;;;;;;5032666;28;20252;-81
2022/10/03 01:40:25;;;;;;;3.40;0.93;;;11.90;99.90;;;;;;5032557;28;20652;-81
2022/10/03 01:43:03;;;;;;;2.77;1.20;;;11.90;99.90;;;;;;5032084;28;20591;-80
2022/10/03 01:45:42;;;;;;;5.13;1.00;;;11.90;99.90;;;;;;5032719;28;20248;-81
2022/10/03 01:48:18;;;;;;;3.93;1.10;;;11.80;99.90;;;;;;5032282;28;20198;-81
2022/10/03 01:50:53;;;;;;;2.43;0.80;;;11.80;99.90;;;;;;5032008;28;20206;-81
2022/10/03 01:53:33;;;;;;;7.00;1.10;;;11.80;99.90;;;;;;5032872;28;20191;-81
2022/10/03 01:56:06;;;;;;;5.60;1.23;;;11.70;99.90;;;;;;5032436;28;20210;-80
2022/10/03 01:58:41;;;;;;;5.27;1.47;;;11.70;99.90;;;;;;5032220;28;20703;-82
2022/10/03 02:01:15;;;;;;;3.90;0.97;;;11.70;99.90;;;;;;5032582;28;20543;-81
2022/10/03 02:03:49;;;;;;;3.70;1.00;;;11.70;99.90;;;;;;5031670;28;20439;-81
2022/10/03 02:06:25;;;;;;;4.83;1.30;;;11.70;99.90;;;;;;5032100;28;20212;-81
2022/10/03 02:08:58;;;;;;;5.47;1.40;;;11.60;99.90;;;;;;5032043;28;20288;-83
2022/10/03 02:11:35;;;;;;;3.50;1.07;;;11.60;99.90;;;;;;5031343;28;20214;-81
2022/10/03 02:14:16;;;;;;;3.43;1.40;;;11.60;99.90;;;;;;5032188;28;20354;-80
2022/10/03 02:16:57;;;;;;;2.93;1.10;;;11.60;99.90;;;;;;5033866;28;20217;-82
2022/10/03 02:19:28;;;;;;;5.03;0.90;;;11.60;99.90;;;;;;5035786;28;20210;-81
2022/10/03 02:21:57;;;;;;;3.97;0.90;;;11.60;99.90;;;;;;5035998;28;20203;-81
2022/10/03 02:24:43;;;;;;;5.00;1.40;;;11.60;99.90;;;;;;5036589;28;20202;-81
2022/10/03 02:27:40;;;;;;;4.77;0.97;;;11.60;99.90;;;;;;5035880;28;20201;-81
2022/10/03 02:30:26;;;;;;;5.13;1.20;;;11.50;99.90;;;;;;5036568;28;20218;-81
2022/10/03 02:33:34;;;;;;;7.13;1.17;;;11.60;99.90;;;;;;5035488;28;20205;-82
2022/10/03 02:36:22;;;;;;;2.90;0.87;;;11.50;99.90;;;;;;4943872;28;20236;-82
2022/10/03 02:39:10;;;;;;;5.63;1.00;;;11.50;99.90;;;;;;5035387;28;20280;-80
2022/10/03 02:42:17;;;;;;;3.40;1.40;;;11.50;99.90;;;;;;5018677;28;20203;-82
2022/10/03 02:45:02;;;;;;;2.60;0.83;;;11.50;99.90;;;;;;5011357;28;20260;-81
2022/10/03 02:47:57;;;;;;;3.13;1.00;;;11.50;99.90;;;;;;5035767;28;20178;-80
2022/10/03 02:50:54;;;;;;;4.43;1.00;;;11.50;99.90;;;;;;5036052;28;20228;-80
2022/10/03 02:54:16;;;;;;;3.70;1.37;;;11.50;99.90;;;;;;5035148;28;20277;-80
2022/10/03 02:57:25;;;;;;;4.13;1.30;;;11.40;99.90;;;;;;5035507;28;20685;-79
2022/10/03 03:00:12;;;;;;;5.77;1.60;;;11.40;99.90;;;;;;5035023;28;20191;-82
2022/10/03 03:03:18;;;;;;;2.93;0.93;;;11.40;99.90;;;;;;5049569;28;20252;-80
2022/10/03 03:06:16;;;;;;;6.93;2.33;;;11.50;99.90;;;;;;5054919;28;20205;-80
2022/10/03 03:09:07;;;;;;;6.33;1.40;;;11.60;99.90;;;;;;5036673;28;20225;-80
2022/10/03 03:12:07;;;;;;;8.57;1.73;;;11.70;99.90;;;;;;5040465;28;20211;-81
2022/10/03 03:15:12;;;;;;;7.70;1.20;;;11.80;99.90;;;;;;5034742;28;20282;-80
2022/10/03 03:17:47;;;;;;;4.60;1.37;;;11.90;99.90;;;;;;5034696;28;20570;-80
2022/10/03 03:20:32;;;;;;;5.17;1.17;;;11.90;99.90;;;;;;5034542;28;20213;-81
2022/10/03 03:23:23;;;;;;;6.77;1.20;;;11.90;99.90;;;;;;5034740;28;20197;-80
2022/10/03 03:26:19;;;;;;;4.50;1.40;;;11.90;99.90;;;;;;5034959;28;20257;-81
2022/10/03 03:28:56;;;;;;;2.50;0.90;;;11.80;99.90;;;;;;5031880;28;20685;-81
2022/10/03 03:31:31;;;;;;;4.53;1.10;;;11.80;99.90;;;;;;5035067;28;20208;-81
2022/10/03 03:34:06;;;;;;;4.00;1.03;;;11.70;99.90;;;;;;5034654;28;20340;-80
2022/10/03 03:36:41;;;;;;;3.63;1.30;;;11.70;99.90;;;;;;5033986;28;20301;-81
2022/10/03 03:39:25;;;;;;;2.90;0.80;;;11.60;99.90;;;;;;5034620;28;20182;-79
2022/10/03 03:42:14;;;;;;;3.53;0.80;;;11.60;99.90;;;;;;5034385;28;20494;-80
2022/10/03 03:45:07;;;;;;;2.33;0.80;;;11.50;99.90;;;;;;5042662;28;20197;-81
2022/10/03 03:47:57;;;;;;;2.13;0.90;;;11.40;99.90;;;;;;5054726;28;20589;-80
2022/10/03 03:50:34;;;;;;;2.80;1.17;;;11.40;99.90;;;;;;5045225;28;20529;-80
2022/10/03 03:53:37;;;;;;;4.87;1.20;;;11.30;99.90;;;;;;5034800;28;20618;-81
2022/10/03 03:56:18;;;;;;;2.83;1.30;;;11.20;99.90;;;;;;4992307;28;20617;-80
2022/10/03 03:58:57;;;;;;;2.67;0.93;;;11.20;99.90;;;;;;5034229;28;20313;-81
2022/10/03 04:01:45;;;;;;;3.57;0.90;;;11.10;99.90;;;;;;5034429;28;20484;-80
2022/10/03 04:04:28;;;;;;;2.60;1.00;;;11.10;99.90;;;;;;5033799;28;20242;-81
2022/10/03 04:07:03;;;;;;;3.10;0.80;;;11.10;99.90;;;;;;5034468;28;20214;-82
2022/10/03 04:09:48;;;;;;;2.73;0.93;;;11.10;99.90;;;;;;5034361;28;20212;-81
2022/10/03 04:12:32;;;;;;;1.80;0.87;;;11.10;99.90;;;;;;5033611;28;20190;-81
2022/10/03 04:15:34;;;;;;;3.27;1.30;;;11.10;99.90;;;;;;5033643;28;20214;-82
2022/10/03 04:21:32;;;;;;;2.57;1.50;;;11.00;99.90;;;;;;5046105;28;20209;-81
2022/10/03 04:24:18;;;;;;;3.70;1.83;;;11.00;99.90;;;;;;5053868;28;20201;-81
2022/10/03 04:27:05;;;;;;;4.37;1.50;;;11.00;99.90;;;;;;5053886;28;20544;-81
2022/10/03 04:29:46;;;;;;;4.97;1.83;;;11.00;99.90;;;;;;5031924;28;20627;-82
2022/10/03 04:32:35;;;;;;;2.70;1.40;;;11.00;99.90;;;;;;5033244;28;20190;-82
2022/10/03 04:35:28;;;;;;;4.33;2.40;;;11.10;99.90;;;;;;5033727;28;20191;-81
2022/10/03 04:38:06;;;;;;;7.80;2.53;;;11.10;99.90;;;;;;5033692;28;20298;-81
2022/10/03 04:40:46;;;;;;;3.17;1.83;;;11.10;99.90;;;;;;5032680;28;20257;-80
2022/10/03 04:43:19;;;;;;;3.23;2.20;;;11.10;99.90;;;;;;5033530;28;20191;-81
2022/10/03 04:46:01;;;;;;;2.63;1.73;;;11.20;99.90;;;;;;5033354;28;20723;-81
2022/10/03 04:48:37;;;;;;;3.67;1.77;;;11.20;99.90;;;;;;5033727;28;20363;-80
2022/10/03 04:51:18;;;;;;;3.83;1.90;;;11.20;99.90;;;;;;5033028;28;20343;-81
2022/10/03 04:53:55;;;;;;;2.80;1.50;;;11.30;99.90;;;;;;5032555;28;20753;-81
2022/10/03 04:56:40;;;;;;;6.63;2.03;;;11.30;99.90;;;;;;5033533;28;20630;-81
2022/10/03 04:59:28;;;;;;;5.33;2.80;;;11.30;99.90;;;;;;5032898;28;20202;-81
2022/10/03 05:02:01;;;;;;;3.57;1.70;;;11.40;99.90;;;;;;5032896;28;20202;-80
2022/10/03 05:04:36;;;;;;;4.40;1.33;;;11.40;99.90;;;;;;5033239;28;20261;-80
2022/10/03 05:07:11;;;;;;;5.27;1.60;;;11.40;99.90;;;;;;5032567;28;20204;-80
2022/10/03 05:09:46;;;;;;;2.53;1.30;;;11.50;99.90;;;;;;5033015;28;20700;-80
2022/10/03 05:12:19;;;;;;;3.33;1.73;;;11.50;99.90;;;;;;5032881;28;20256;-80
2022/10/03 05:15:06;;;;;;;2.63;1.00;;;11.50;99.90;;;;;;5032660;28;20252;-81
2022/10/03 05:17:44;;;;;;;2.97;1.10;;;11.60;99.90;;;;;;5033207;28;20532;-81
2022/10/03 05:20:24;;;;;;;3.20;1.10;;;11.60;99.90;;;;;;5032827;28;20186;-81
2022/10/03 05:22:59;;;;;;;2.90;1.13;;;11.70;99.90;;;;;;5032828;28;20199;-81
2022/10/03 05:25:38;;;;;;;4.53;1.50;;;11.70;99.90;;;;;;5033057;28;20284;-80
2022/10/03 05:28:17;;;;;;;4.67;1.30;;;11.70;99.90;;;;;;5032396;28;20195;-80
2022/10/03 05:30:52;;;;;;;2.57;1.20;;;11.70;99.90;;;;;;5032889;28;21055;-81
2022/10/03 05:33:29;;;;;;;1.80;1.03;;;11.70;99.90;;;;;;5032455;28;20205;-81
2022/10/03 05:36:09;;;;;;;2.20;1.30;;;11.80;99.90;;;;;;5032203;28;20494;-81
2022/10/03 05:39:17;;;;;;;1.20;0.97;;;11.80;99.90;;;;;;5032809;28;20221;-80
2022/10/03 05:41:52;;;;;;;2.83;1.20;;;11.80;99.90;;;;;;5021753;28;20562;-80
2022/10/03 05:44:25;;;;;;;2.27;1.20;;;11.80;99.90;;;;;;5032050;28;20642;-81
2022/10/03 05:46:59;;;;;;;3.07;1.30;;;11.80;99.90;;;;;;5031666;28;20281;-80
2022/10/03 05:49:57;;;;;;;4.93;1.87;;;11.90;99.90;;;;;;5031821;28;20198;-79
2022/10/03 05:52:58;;;;;;;4.23;1.20;;;11.90;99.90;;;;;;5027131;28;20203;-81
2022/10/03 05:55:45;;;;;;;2.77;1.70;;;11.90;99.90;;;;;;5032275;28;20467;-80
2022/10/03 05:58:35;;;;;;;2.00;1.20;;;11.90;99.90;;;;;;5031911;28;20248;-81
2022/10/03 06:01:43;;;;;;;2.80;1.20;;;11.90;99.90;;;;;;5050485;28;20194;-82
2022/10/03 06:04:31;;;;;;;2.77;1.20;;;12.00;99.90;;;;;;5044523;28;20230;-80
2022/10/03 06:07:14;;;;;;;3.13;1.20;;;12.00;99.90;;;;;;5032270;28;20202;-80
2022/10/03 06:10:03;;;;;;;2.97;1.20;;;12.00;99.90;;;;;;5031429;28;20759;-81
2022/10/03 06:12:39;;;;;;;2.43;0.97;;;12.00;99.90;;;;;;5032325;28;20254;-81
2022/10/03 06:15:36;;;;;;;4.20;1.20;;;12.10;99.90;;;;;;5031526;28;20229;-81
2022/10/03 06:18:21;;;;;;;5.60;2.47;;;12.10;99.90;;;;;;5011999;28;20313;-80
2022/10/03 06:21:18;;;;;;;4.53;1.60;;;12.10;99.90;;;;;;5031645;28;20249;-80
2022/10/03 06:24:10;;;;;;;3.97;1.70;;;12.10;99.90;;;;;;5031099;28;20203;-80
2022/10/03 06:27:18;;;;;;;4.50;2.00;;;12.20;99.90;;;;;;5031820;28;20210;-81
2022/10/03 06:30:21;;;;;;;5.83;2.30;;;12.20;99.90;;;;;;5031998;28;20207;-79
2022/10/03 06:33:16;;;;;;;7.90;2.43;;;12.30;99.90;;;;;;5031551;28;20213;-81
2022/10/03 06:36:08;;;;;;;8.40;2.63;;;12.30;99.90;;;;;;5032314;28;20198;-80
2022/10/03 06:39:10;;;;;;;7.57;2.70;;;12.40;99.90;;;;;;5031574;28;20218;-80
2022/10/03 06:42:20;;;;;;;3.73;2.00;;;12.40;99.90;;;;;;5031962;28;20787;-81
2022/10/03 06:45:19;;;;;;;6.37;2.73;;;12.50;99.90;;;;;;5031941;28;20213;-81
2022/10/03 06:48:12;;;;;;;9.73;3.27;;;12.60;99.90;;;;;;4997933;28;20198;-81
2022/10/03 06:50:50;;;;;;;5.70;2.40;;;12.60;99.90;;;;;;5031071;28;20294;-81
2022/10/03 06:53:50;;;;;;;12.30;4.23;;;12.70;99.90;;;;;;5031045;28;20594;-80
2022/10/03 06:56:59;;;;;;;8.90;3.47;;;12.70;99.90;;;;;;5031298;28;20500;-80
2022/10/03 06:59:55;;;;;;;6.07;2.63;;;12.80;99.90;;;;;;5031310;28;20270;-79
2022/10/03 07:02:51;;;;;;;4.77;3.10;;;12.90;99.90;;;;;;5031994;28;20606;-80
2022/10/03 07:05:56;;;;;;;3.60;2.63;;;12.90;99.90;;;;;;5035138;28;20218;-80
2022/10/03 07:09:03;;;;;;;4.90;2.63;;;13.00;99.90;;;;;;5036657;28;20201;-80
2022/10/03 07:12:05;;;;;;;6.13;3.27;;;13.10;99.90;;;;;;5051485;28;20213;-80
2022/10/03 07:15:09;;;;;;;5.33;2.83;;;13.10;99.90;;;;;;5045251;28;20288;-80
2022/10/03 07:18:05;;;;;;;8.63;3.70;;;13.20;99.90;;;;;;5053899;28;20230;-81
2022/10/03 07:21:05;;;;;;;5.77;2.60;;;13.30;99.90;;;;;;5049355;28;20210;-80
2022/10/03 07:23:53;;;;;;;8.17;3.17;;;13.30;99.90;;;;;;5013985;28;20244;-80
2022/10/03 07:26:52;;;;;;;7.03;3.07;;;13.40;99.90;;;;;;5050029;28;20213;-80
2022/10/03 07:29:27;;;;;;;10.37;3.17;;;13.50;99.90;;;;;;5069678;28;20197;-81
2022/10/03 07:32:20;;;;;;;9.03;2.50;;;13.60;99.90;;;;;;5038604;28;20617;-81
2022/10/03 07:35:16;;;;;;;6.13;2.60;;;13.70;99.90;;;;;;5034754;28;20194;-82
2022/10/03 07:41:20;;;;;;;4.20;1.60;;;13.80;99.90;;;;;;5044257;28;20629;-80
2022/10/03 07:44:19;;;;;;;7.83;2.03;;;13.90;99.90;;;;;;5039722;28;20232;-81
2022/10/03 07:47:09;;;;;;;3.73;1.70;;;13.90;99.90;;;;;;5054565;28;20198;-81
2022/10/03 07:50:04;;;;;;;4.20;1.23;;;14.00;99.90;;;;;;5054454;28;20187;-80
2022/10/03 07:52:52;;;;;;;5.77;1.90;;;14.10;99.90;;;;;;5053134;28;20202;-80
2022/10/03 07:55:40;;;;;;;5.40;1.33;;;14.20;99.90;;;;;;5053854;28;20237;-81
2022/10/03 07:58:33;;;;;;;7.57;1.57;;;14.20;99.90;;;;;;5054385;28;20217;-81
2022/10/03 08:01:24;;;;;;;4.33;1.60;;;14.30;99.90;;;;;;5043822;28;20206;-81
2022/10/03 08:04:37;;;;;;;3.65;1.50;;;14.40;99.90;;;;;;5033405;28;20242;-80
2022/10/03 08:07:24;;;;;;;5.57;1.37;;;14.50;99.90;;;;;;5002909;28;20221;-80
2022/10/03 08:10:13;;;;;;;4.97;1.60;;;14.50;99.90;;;;;;5052495;28;20285;-79
2022/10/03 08:13:13;;;;;;;4.57;1.42;;;14.60;99.90;;;;;;5053948;28;20190;-79
2022/10/03 08:15:55;;;;;;;6.00;2.10;;;14.70;99.90;;;;;;5046951;28;20225;-80
2022/10/03 08:18:44;;;;;;;10.07;2.77;;;14.70;99.90;;;;;;5052872;28;20213;-80
2022/10/03 08:21:15;;;;;;;5.40;1.90;;;14.80;99.90;;;;;;5050300;28;20194;-81
2022/10/03 08:24:13;;;;;;;4.32;2.20;;;14.80;99.90;;;;;;5052494;28;20198;-80
2022/10/03 08:27:16;;;;;;;3.78;1.88;;;14.80;99.90;;;;;;5052989;28;20194;-80
2022/10/03 08:30:19;;;;;;;6.53;1.88;;;14.80;99.90;;;;;;5039811;28;20205;-80
2022/10/03 08:33:22;;;;;;;4.80;1.88;;;14.80;99.90;;;;;;5033499;28;20204;-80
2022/10/03 08:36:21;;;;;;;7.75;2.10;;;14.80;99.90;;;;;;5016810;28;20232;-79
2022/10/03 08:39:12;;;;;;;4.00;1.33;;;14.80;99.90;;;;;;5032993;28;20638;-80
2022/10/03 08:42:22;;;;;;;5.63;1.85;;;14.80;99.90;;;;;;5037194;28;20210;-81
2022/10/03 08:45:18;;;;;;;5.70;1.50;;;14.80;99.90;;;;;;5046885;28;20213;-81
2022/10/03 08:48:23;;;;;;;7.07;1.90;;;14.90;99.90;;;;;;5047199;28;20198;-81
2022/10/03 08:51:16;;;;;;;7.88;1.88;;;15.00;99.90;;;;;;5052756;28;20201;-81
2022/10/03 08:54:34;;;;;;;6.05;2.00;;;15.10;99.90;;;;;;5012660;28;20656;-82
2022/10/03 08:57:23;;;;;;;6.18;1.60;;;15.20;99.90;;;;;;4980974;28;20224;-80
2022/10/03 09:00:11;;;;;;;9.50;2.03;;;15.30;99.90;;;;;;4971602;28;20213;-81
2022/10/03 09:03:20;;;;;;;5.22;2.15;;;15.50;99.90;;;;;;5008111;28;22638;-82
2022/10/03 09:06:25;;;;;;;6.75;2.05;;;15.60;99.90;;;;;;5038029;28;20198;-80
2022/10/03 09:09:31;;;;;;;6.70;2.00;;;15.70;99.90;;;;;;5049257;28;20198;-81
2022/10/03 09:12:25;;;;;;;5.68;1.77;;;15.70;99.90;;;;;;4994187;28;20203;-80
2022/10/03 09:15:40;;;;;;;9.68;2.47;;;15.80;99.90;;;;;;5049124;28;20678;-80
2022/10/03 09:18:21;;;;;;;5.43;1.90;;;15.70;99.90;;;;;;5043963;28;20625;-81
2022/10/03 09:21:20;;;;;;;5.32;1.80;;;15.70;99.90;;;;;;5051185;28;20210;-82
2022/10/03 09:24:22;;;;;;;5.85;2.35;;;15.80;99.90;;;;;;5044324;28;20198;-81
2022/10/03 09:27:29;;;;;;;5.22;1.95;;;15.80;99.90;;;;;;5044987;28;20216;-80
2022/10/03 09:30:16;;;;;;;5.13;1.60;;;15.80;99.90;;;;;;5050535;28;20618;-79
2022/10/03 09:33:15;;;;;;;5.72;1.88;;;15.90;99.90;;;;;;5041756;28;20210;-81
2022/10/03 09:36:04;;;;;;;5.25;1.63;;;15.90;99.90;;;;;;5022479;28;20198;-81
2022/10/03 09:38:57;;;;;;;8.48;2.30;;;16.00;99.90;;;;;;5038668;28;20218;-80
2022/10/03 09:42:20;;;;;;;7.45;2.38;;;16.10;99.90;;;;;;5033188;28;20228;-81
2022/10/03 09:45:30;;;;;;;11.05;2.30;;;16.20;99.90;;;;;;5032103;28;20268;-81
2022/10/03 09:48:35;;;;;;;7.97;2.72;;;16.20;99.90;;;;;;5015751;28;20198;-81
2022/10/03 09:51:30;;;;;;;7.47;2.00;;;16.30;99.90;;;;;;5016873;28;20228;-82
2022/10/03 09:54:34;;;;;;;8.27;1.77;;;16.30;99.90;;;;;;5037281;28;20198;-81
2022/10/03 09:57:31;;;;;;;8.35;1.98;;;16.30;99.90;;;;;;5045088;28;20513;-81
2022/10/03 10:00:14;;;;;;;5.10;1.65;;;16.30;99.90;;;;;;5041742;28;20214;-81
2022/10/03 10:03:21;;;;;;;9.15;2.33;;;16.40;99.90;;;;;;5037169;28;20343;-81
2022/10/03 10:06:12;;;;;;;8.32;2.17;;;16.40;99.90;;;;;;5013740;28;20213;-81
2022/10/03 10:09:29;;;;;;;10.25;2.00;;;16.40;99.90;;;;;;5049435;28;20201;-81
2022/10/03 10:12:13;;;;;;;7.68;2.10;;;16.40;99.90;;;;;;5031555;28;20293;-81
2022/10/03 10:15:14;;;;;;;5.97;2.08;;;16.50;99.90;;;;;;5039251;28;20239;-80
2022/10/03 10:18:28;;;;;;;7.22;2.55;;;16.50;99.90;;;;;;5037255;28;20203;-80
2022/10/03 10:21:30;;;;;;;7.03;1.85;;;16.60;99.90;;;;;;5042833;28;20190;-81
2022/10/03 10:24:20;;;;;;;10.07;1.90;;;16.50;99.90;;;;;;5051004;28;20202;-83
2022/10/03 10:27:19;;;;;;;6.25;1.92;;;16.60;99.90;;;;;;5002026;28;20244;-81
2022/10/03 10:30:22;;;;;;;10.25;2.40;;;16.60;99.90;;;;;;5034495;28;20209;-82
2022/10/03 10:33:37;;;;;;;9.02;2.03;;;16.70;99.90;;;;;;5051494;28;20309;-81
2022/10/03 10:36:40;;;;;;;9.40;2.15;;;16.70;99.90;;;;;;5049273;28;20472;-81
2022/10/03 10:39:42;;;;;;;9.52;2.47;;;16.80;99.90;;;;;;5054707;28;20209;-82
2022/10/03 10:43:05;;;;;;;5.20;1.65;;;16.80;99.90;;;;;;5033005;28;20195;-80
2022/10/03 10:46:11;;;;;;;11.27;2.25;;;16.90;99.90;;;;;;4967343;28;20224;-81
2022/10/03 10:49:13;;;;;;;10.52;2.65;;;16.90;99.90;;;;;;4956428;28;20201;-81
2022/10/03 10:52:13;;;;;;;10.10;2.05;;;16.90;99.90;;;;;;5043505;28;20277;-81
2022/10/03 10:55:22;;;;;;;4.85;1.90;;;16.90;98.30;;;;;;5046044;28;20201;-81
2022/10/03 10:58:33;;;;;;;7.93;2.15;;;16.90;99.90;;;;;;5003875;28;20231;-81
2022/10/03 11:01:48;;;;;;;7.45;1.85;;;16.90;99.90;;;;;;5053991;28;20277;-82
2022/10/03 11:05:00;;;;;;;7.65;2.40;;;16.90;99.70;;;;;;5054491;28;20237;-82
2022/10/03 11:08:05;;;;;;;8.20;1.88;;;16.90;96.10;;;;;;5035720;28;20202;-82
2022/10/03 11:10:35;;;;;;;9.00;2.10;;;16.90;93.90;;;;;;5041782;28;20205;-81
2022/10/03 11:13:47;;;;;;;9.30;2.00;;;17.00;99.90;;;;;;5054376;28;20563;-81
2022/10/03 11:17:02;;;;;;;11.10;2.20;;;17.10;99.90;;;;;;5017965;28;20633;-81
2022/10/03 11:20:09;;;;;;;10.63;2.42;;;17.10;91.60;;;;;;4973366;28;20314;-80
2022/10/03 11:23:09;;;;;;;5.82;2.15;;;17.20;32.40;;;;;;4973884;28;20200;-81
2022/10/03 11:26:12;;;;;;;11.60;2.15;;;17.40;62.90;;;;;;5050252;28;20214;-81
2022/10/03 11:29:22;;;;;;;6.35;1.98;;;17.70;41.00;;;;;;5054925;28;20292;-81
2022/10/03 11:32:34;;;;;;;17.15;2.80;;;18.00;1.00;;;;;;5054386;28;20201;-81
2022/10/03 11:35:44;;;;;;;10.38;2.35;;;18.20;1.00;;;;;;5041632;28;20595;-82
2022/10/03 11:38:18;;;;;;;7.75;2.13;;;18.40;1.00;;;;;;5054491;28;20537;-82
2022/10/03 11:40:57;;;;;;;8.48;2.40;;;18.50;1.00;;;;;;5034254;28;20257;-81
2022/10/03 11:43:53;;;;;;;6.22;1.98;;;18.50;1.00;;;;;;5034471;28;20519;-83
2022/10/03 11:46:30;;;;;;;11.25;2.13;;;18.50;1.00;;;;;;5034403;28;20595;-85
2022/10/03 11:49:02;;;;;;;7.57;2.05;;;18.50;1.00;;;;;;5034640;28;20194;-86
2022/10/03 11:51:39;;;;;;;7.40;2.15;;;18.40;1.00;;;;;;5047358;28;20609;-89
2022/10/03 11:54:20;;;;;;;6.95;2.08;;;18.50;1.00;;;;;;5055815;28;20504;-88
2022/10/03 11:56:51;;;;;;;8.77;2.42;;;18.60;1.00;;;;;;5049328;28;20198;-89
2022/10/03 11:59:33;;;;;;;10.38;2.92;;;18.70;1.00;;;;;;5055894;28;20540;-87
2022/10/03 12:02:14;;;;;;;10.23;2.33;;;19.00;1.00;;;;;;5055096;28;20221;-87
2022/10/03 12:04:51;;;;;;;8.85;2.70;;;19.00;1.00;;;;;;5049327;28;20262;-90
2022/10/03 12:10:38;;;;;;;7.88;2.20;;;18.80;1.00;;;;;;5047252;28;20306;-88
2022/10/03 12:13:12;;;;;;;5.97;1.90;;;18.80;1.00;;;;;;5056027;28;20586;-89
2022/10/03 12:15:43;;;;;;;7.15;2.05;;;18.80;1.00;;;;;;5048477;28;20278;-85
2022/10/03 12:18:17;;;;;;;8.02;2.22;;;18.70;1.00;;;;;;5051961;28;20202;-86
2022/10/03 12:21:08;;;;;;;7.45;2.20;;;18.80;1.00;;;;;;5055900;28;20256;-87
2022/10/03 12:23:53;;;;;;;12.40;2.67;;;18.90;1.00;;;;;;5035859;28;20214;-87
2022/10/03 12:26:28;;;;;;;6.00;2.13;;;19.00;1.00;;;;;;5036436;28;20201;-87
2022/10/03 12:28:58;;;;;;;10.07;2.60;;;19.00;1.00;;;;;;5035506;28;20540;-85
2022/10/03 12:31:34;;;;;;;6.47;2.03;;;19.10;99.90;;;;;;5035532;28;20268;-87
2022/10/03 12:34:12;;;;;;;8.90;2.85;;;19.10;99.90;;;;;;5035659;28;20218;-86
2022/10/03 12:36:52;;;;;;;6.15;2.00;;;19.10;99.90;;;;;;5039580;28;20198;-88
2022/10/03 12:39:34;;;;;;;7.68;2.70;;;19.10;99.90;;;;;;5055673;28;20253;-86
2022/10/03 12:42:18;;;;;;;8.05;2.25;;;19.20;1.00;;;;;;5055820;28;20194;-86
2022/10/03 12:44:54;;;;;;;9.00;2.38;;;19.30;99.90;;;;;;5049291;28;20293;-86
2022/10/03 12:47:32;;;;;;;7.78;2.38;;;19.30;99.90;;;;;;5035335;28;20195;-86
2022/10/03 12:50:09;;;;;;;9.90;2.70;;;19.40;99.90;;;;;;5035339;28;20208;-86
2022/10/03 12:52:43;;;;;;;11.13;2.83;;;19.50;99.90;;;;;;5035187;28;20203;-85
2022/10/03 12:55:25;;;;;;;8.48;2.30;;;19.60;99.90;;;;;;5035157;28;20216;-85
2022/10/03 12:57:57;;;;;;;9.65;2.75;;;19.60;99.90;;;;;;5034582;28;20724;-85
2022/10/03 13:00:28;;;;;;;10.68;2.80;;;19.80;99.90;;;;;;5034670;28;20697;-85
2022/10/03 13:03:28;;;;;;;7.15;2.40;;;19.90;99.90;;;;;;5034390;28;20240;-86
2022/10/03 13:06:29;;;;;;;9.18;2.75;;;20.00;51.50;;;;;;5027893;28;20292;-86
2022/10/03 13:09:09;;;;;;;8.35;2.33;;;20.00;1.00;;;;;;5054362;28;20201;-83
2022/10/03 13:11:49;;;;;;;11.30;2.70;;;19.90;1.00;;;;;;5054287;28;20275;-83
2022/10/03 13:14:27;;;;;;;11.00;2.85;;;19.80;1.00;;;;;;5054619;28;20247;-85
2022/10/03 13:17:04;;;;;;;9.32;2.35;;;19.80;99.90;;;;;;5034148;28;20225;-83
2022/10/03 13:19:42;;;;;;;5.60;2.05;;;19.60;1.00;;;;;;5033992;28;20214;-86
2022/10/03 13:22:25;;;;;;;7.10;2.15;;;19.50;1.00;;;;;;5033957;28;20201;-85
2022/10/03 13:25:00;;;;;;;7.95;2.25;;;19.30;99.90;;;;;;5033953;28;20202;-84
2022/10/03 13:27:36;;;;;;;9.32;2.55;;;19.30;99.90;;;;;;5033391;28;20201;-81
2022/10/03 13:30:08;;;;;;;8.57;2.28;;;19.10;99.90;;;;;;5033868;28;20190;-83
2022/10/03 13:32:41;;;;;;;8.98;2.55;;;19.10;1.00;;;;;;5034114;28;20198;-83
2022/10/03 13:38:45;;;;;;;9.88;2.22;;;19.20;99.90;;;;;;5033647;28;20261;-84
2022/10/03 13:41:23;;;;;;;10.60;3.08;;;19.30;99.90;;;;;;5033125;28;20316;-82
2022/10/03 13:43:56;;;;;;;5.18;2.15;;;19.50;99.90;;;;;;5033070;28;20627;-82
2022/10/03 13:46:30;;;;;;;8.40;2.28;;;19.40;99.90;;;;;;5033157;28;20205;-83
2022/10/03 13:49:02;;;;;;;6.15;1.80;;;19.40;99.90;;;;;;5032693;28;20209;-82
2022/10/03 13:51:38;;;;;;;10.00;3.03;;;19.30;1.00;;;;;;5033073;28;20226;-82
2022/10/03 13:54:10;;;;;;;7.85;2.33;;;19.30;1.00;;;;;;5032412;28;20221;-83
2022/10/03 13:56:56;;;;;;;9.93;2.17;;;19.10;1.00;;;;;;5032887;28;20198;-83
2022/10/03 13:59:48;;;;;;;8.75;2.47;;;19.00;1.00;;;;;;5032589;28;20293;-82
2022/10/03 14:02:38;;;;;;;8.68;2.28;;;19.00;1.00;;;;;;5032531;28;20258;-84
2022/10/03 14:05:21;;;;;;;4.88;2.25;;;18.90;1.00;;;;;;4993179;28;20196;-83
2022/10/03 14:08:00;;;;;;;10.60;2.42;;;18.80;1.00;;;;;;4993556;28;20487;-83
2022/10/03 14:10:51;;;;;;;5.40;1.98;;;18.70;1.00;;;;;;4993120;28;20258;-81
2022/10/03 14:13:27;;;;;;;8.07;2.15;;;18.70;1.00;;;;;;4997216;28;20765;-83
2022/10/03 14:16:00;;;;;;;8.45;2.60;;;18.60;1.00;;;;;;4997264;28;20195;-83
2022/10/03 14:18:39;;;;;;;7.72;2.42;;;18.50;1.00;;;;;;4997535;28;20228;-82
2022/10/03 14:21:43;;;;;;;8.50;2.45;;;18.50;1.00;;;;;;4996941;28;20215;-83
2022/10/03 14:24:20;;;;;;;7.47;2.08;;;18.50;1.00;;;;;;4996934;28;20204;-82
2022/10/03 14:26:55;;;;;;;6.80;2.30;;;18.50;1.00;;;;;;4997666;28;20211;-83
2022/10/03 14:29:28;;;;;;;6.82;2.40;;;18.50;1.00;;;;;;4997456;28;20199;-82
2022/10/03 14:32:02;;;;;;;8.00;2.40;;;18.50;1.00;;;;;;4997839;28;20550;-82
2022/10/03 14:34:42;;;;;;;8.30;2.45;;;18.50;1.00;;;;;;4997404;28;20198;-83
2022/10/03 14:37:21;;;;;;;9.13;2.60;;;18.50;1.00;;;;;;5001683;28;20584;-83
2022/10/03 14:40:00;;;;;;;9.07;2.30;;;18.50;1.00;;;;;;5016971;28;20217;-82
2022/10/03 14:42:40;;;;;;;6.75;2.50;;;18.50;1.00;;;;;;5016731;28;20534;-83
2022/10/03 14:45:09;;;;;;;9.30;2.67;;;18.50;99.90;;;;;;5016145;28;20764;-81
2022/10/03 14:47:39;;;;;;;10.05;2.20;;;18.40;99.90;;;;;;5015043;28;20291;-81
2022/10/03 14:50:14;;;;;;;6.10;1.95;;;18.30;99.90;;;;;;5006933;28;20196;-82
2022/10/03 14:52:45;;;;;;;7.20;2.53;;;18.30;99.90;;;;;;4996974;28;20196;-81